createdAt,value
2018-04-19T00:01:59.892Z,48.30
2018-04-19T00:04:28.241Z,48.40
2018-04-19T00:06:55.823Z,48.30
2018-04-19T00:09:24.177Z,48.40
2018-04-19T00:11:51.791Z,48.30
2018-04-19T00:14:20.153Z,48.40
2018-04-19T00:16:47.739Z,48.30
2018-04-19T00:19:15.355Z,48.40
2018-04-19T00:21:43.704Z,48.40
2018-04-19T00:24:11.294Z,48.40
2018-04-19T00:26:39.689Z,48.50
2018-04-19T00:29:07.306Z,48.40
2018-04-19T00:31:34.898Z,48.40
2018-04-19T00:34:02.511Z,48.40
2018-04-19T00:36:30.104Z,48.50
2018-04-19T00:38:58.455Z,48.50
2018-04-19T00:41:26.035Z,48.50
2018-04-19T00:43:54.392Z,48.50
2018-04-19T00:46:21.975Z,48.50
2018-04-19T00:48:50.324Z,48.60
2018-04-19T00:51:17.907Z,48.50
2018-04-19T00:53:46.263Z,48.60
2018-04-19T00:56:13.851Z,48.50
2018-04-19T00:58:41.444Z,48.60
2018-04-19T01:01:09.026Z,48.50
2018-04-19T01:03:36.604Z,48.60
2018-04-19T01:06:04.963Z,48.60
2018-04-19T01:08:32.577Z,48.60
2018-04-19T01:11:00.159Z,48.60
2018-04-19T01:13:27.739Z,48.60
2018-04-19T01:15:55.328Z,48.60
2018-04-19T01:18:23.680Z,48.50
2018-04-19T01:20:51.297Z,48.50
2018-04-19T01:23:18.877Z,48.50
2018-04-19T01:25:46.507Z,48.50
2018-04-19T01:28:14.095Z,48.50
2018-04-19T01:30:41.684Z,48.50
2018-04-19T01:33:10.032Z,48.50
2018-04-19T01:35:49.428Z,48.50
2018-04-19T01:38:17.016Z,48.50
2018-04-19T01:40:44.599Z,48.50
2018-04-19T01:43:12.227Z,48.50
2018-04-19T01:45:39.810Z,48.50
2018-04-19T01:48:07.393Z,48.60
2018-04-19T01:50:35.748Z,49.20
2018-04-19T01:53:03.331Z,48.40
2018-04-19T01:55:31.687Z,48.60
2018-04-19T01:57:59.275Z,48.50
2018-04-19T02:00:26.853Z,48.50
2018-04-19T02:02:54.445Z,48.50
2018-04-19T02:05:22.030Z,48.50
2018-04-19T02:07:50.381Z,48.50
2018-04-19T02:10:18.006Z,48.50
2018-04-19T02:12:45.602Z,48.50
2018-04-19T02:15:13.191Z,48.50
2018-04-19T02:17:41.543Z,48.50
2018-04-19T02:20:09.123Z,48.50
2018-04-19T02:22:37.477Z,48.70
2018-04-19T02:25:05.069Z,48.60
2018-04-19T02:27:32.680Z,48.60
2018-04-19T02:30:00.276Z,48.60
2018-04-19T02:32:28.627Z,48.70
2018-04-19T02:34:56.221Z,49.20
2018-04-19T02:37:23.817Z,48.70
2018-04-19T02:39:51.402Z,48.70
2018-04-19T02:42:18.986Z,48.70
2018-04-19T02:44:47.335Z,48.70
2018-04-19T02:47:14.922Z,48.70
2018-04-19T02:49:43.268Z,48.70
2018-04-19T02:52:10.851Z,48.60
2018-04-19T02:54:39.195Z,48.80
2018-04-19T02:57:06.787Z,48.70
2018-04-19T02:59:35.139Z,48.70
2018-04-19T03:02:02.727Z,48.70
2018-04-19T03:04:31.080Z,48.70
2018-04-19T03:06:58.660Z,48.70
2018-04-19T03:09:27.004Z,48.70
2018-04-19T03:11:54.592Z,48.70
2018-04-19T03:14:22.951Z,48.80
2018-04-19T03:16:51.312Z,48.80
2018-04-19T03:19:18.919Z,48.80
2018-04-19T03:21:46.505Z,48.80
2018-04-19T03:24:14.092Z,48.80
2018-04-19T03:26:41.672Z,48.80
2018-04-19T03:29:10.024Z,48.80
2018-04-19T03:31:37.617Z,48.80
2018-04-19T03:34:05.959Z,48.90
2018-04-19T03:36:33.543Z,48.90
2018-04-19T03:39:01.892Z,48.90
2018-04-19T03:41:29.525Z,48.80
2018-04-19T03:43:57.108Z,48.80
2018-04-19T03:46:24.692Z,48.90
2018-04-19T03:48:53.040Z,48.90
2018-04-19T03:51:20.631Z,48.90
2018-04-19T03:53:48.992Z,48.90
2018-04-19T03:56:16.580Z,48.90
2018-04-19T03:58:44.166Z,48.90
2018-04-19T04:01:11.774Z,48.90
2018-04-19T04:03:40.135Z,48.90
2018-04-19T04:06:07.724Z,48.90
2018-04-19T04:08:36.073Z,49.00
2018-04-19T04:11:03.658Z,49.00
2018-04-19T04:13:32.008Z,49.00
2018-04-19T04:15:59.596Z,49.00
2018-04-19T04:18:39.166Z,49.00
2018-04-19T04:21:18.608Z,49.00
2018-04-19T04:23:54.339Z,49.00
2018-04-19T04:26:22.294Z,49.00
2018-04-19T04:28:49.892Z,49.00
2018-04-19T04:31:17.746Z,48.90
2018-04-19T04:33:45.412Z,49.00
2018-04-19T04:36:13.044Z,49.00
2018-04-19T04:38:40.824Z,49.00
2018-04-19T04:41:08.424Z,49.00
2018-04-19T04:51:09.698Z,49.00
2018-04-19T04:53:37.322Z,49.00
2018-04-19T04:56:05.013Z,49.00
2018-04-19T04:58:32.596Z,49.00
2018-04-19T05:01:00.960Z,48.90
2018-04-19T05:03:29.320Z,48.90
2018-04-19T05:05:56.955Z,48.90
2018-04-19T05:08:24.578Z,48.90
2018-04-19T05:10:52.200Z,48.90
2018-04-19T05:13:19.817Z,48.90
2018-04-19T05:15:47.439Z,48.90
2018-04-19T05:18:15.835Z,48.90
2018-04-19T05:20:44.192Z,48.20
2018-04-19T05:23:12.547Z,46.00
2018-04-19T05:25:40.134Z,45.90
2018-04-19T05:28:08.485Z,44.10
2018-04-19T05:30:36.109Z,44.00
2018-04-19T05:33:03.699Z,44.10
2018-04-19T05:35:31.284Z,43.90
2018-04-19T05:37:58.872Z,43.30
2018-04-19T05:40:26.460Z,43.50
2018-04-19T05:42:54.040Z,43.10
2018-04-19T05:45:21.624Z,42.60
2018-04-19T05:47:49.220Z,42.00
2018-04-19T05:50:17.655Z,42.20
2018-04-19T05:52:45.245Z,42.00
2018-04-19T05:55:13.592Z,42.50
2018-04-19T05:57:41.217Z,42.60
2018-04-19T06:00:08.835Z,42.80
2018-04-19T06:02:37.188Z,42.90
2018-04-19T06:05:04.816Z,42.90
2018-04-19T06:07:32.404Z,43.00
2018-04-19T06:10:00.042Z,44.30
2018-04-19T06:12:27.637Z,42.70
2018-04-19T06:14:55.267Z,42.30
2018-04-19T06:17:22.876Z,42.00
2018-04-19T06:19:51.297Z,42.20
2018-04-19T06:22:18.930Z,42.10
2018-04-19T06:24:46.544Z,42.50
2018-04-19T06:27:14.172Z,42.60
2018-04-19T06:29:41.755Z,44.20
2018-04-19T06:32:09.396Z,44.30
2018-04-19T06:34:37.006Z,42.40
2018-04-19T06:37:05.364Z,43.10
2018-04-19T06:39:32.946Z,43.10
2018-04-19T06:42:01.348Z,42.30
2018-04-19T06:44:28.963Z,42.30
2018-04-19T06:46:57.372Z,43.40
2018-04-19T06:49:24.956Z,43.40
2018-04-19T06:51:52.572Z,43.80
2018-04-19T06:54:20.979Z,41.90
2018-04-19T06:56:48.571Z,41.90
2018-04-19T06:59:16.198Z,41.50
2018-04-19T07:01:43.829Z,41.10
2018-04-19T07:04:11.464Z,41.60
2018-04-19T07:06:39.052Z,42.90
2018-04-19T07:09:07.448Z,42.00
2018-04-19T07:11:35.032Z,42.00
2018-04-19T07:14:02.652Z,43.30
2018-04-19T07:16:30.246Z,44.10
2018-04-19T07:18:57.880Z,44.70
2018-04-19T07:21:25.474Z,43.70
2018-04-19T07:23:53.101Z,41.00
2018-04-19T07:26:20.692Z,41.80
2018-04-19T07:28:48.316Z,40.30
2018-04-19T07:31:15.984Z,40.80
2018-04-19T07:33:43.656Z,41.30
2018-04-19T07:36:11.245Z,40.70
2018-04-19T07:38:38.832Z,42.00
2018-04-19T07:41:07.223Z,44.00
2018-04-19T07:43:34.812Z,43.90
2018-04-19T07:46:02.472Z,43.90
2018-04-19T07:48:30.060Z,43.90
2018-04-19T07:50:57.776Z,44.10
2018-04-19T07:53:25.371Z,44.10
2018-04-19T07:55:52.965Z,44.10
2018-04-19T07:58:21.365Z,44.20
2018-04-19T08:00:49.000Z,44.10
2018-04-19T08:03:17.412Z,43.40
2018-04-19T08:05:45.036Z,43.40
2018-04-19T08:08:13.444Z,44.00
2018-04-19T08:10:41.044Z,43.90
2018-04-19T08:13:08.664Z,43.90
2018-04-19T08:15:36.793Z,44.10
2018-04-19T08:18:05.204Z,44.00
2018-04-19T08:20:32.820Z,43.90
2018-04-19T08:23:00.452Z,44.20
2018-04-19T08:25:28.090Z,44.00
2018-04-19T08:27:55.674Z,43.80
2018-04-19T08:30:23.300Z,43.60
2018-04-19T08:32:50.906Z,44.10
2018-04-19T08:35:18.546Z,43.50
2018-04-19T08:37:46.140Z,43.20
2018-04-19T08:40:13.776Z,42.70
2018-04-19T08:42:41.403Z,42.50
2018-04-19T08:45:08.989Z,42.30
2018-04-19T08:47:36.625Z,42.20
2018-04-19T08:50:04.215Z,41.80
2018-04-19T08:52:31.842Z,41.40
2018-04-19T08:54:59.441Z,41.00
2018-04-19T08:57:27.069Z,41.00
2018-04-19T08:59:54.709Z,41.50
2018-04-19T09:02:22.344Z,41.40
2018-04-19T09:04:50.693Z,40.30
2018-04-19T09:07:18.285Z,40.30
2018-04-19T09:09:46.688Z,40.10
2018-04-19T09:12:14.268Z,40.10
2018-04-19T09:14:41.903Z,40.30
2018-04-19T09:17:09.481Z,40.10
2018-04-19T09:19:37.117Z,39.90
2018-04-19T09:22:04.740Z,39.50
2018-04-19T09:24:32.332Z,39.60
2018-04-19T09:26:59.957Z,39.80
2018-04-19T09:29:27.548Z,39.80
2018-04-19T09:31:55.173Z,38.90
2018-04-19T09:34:22.764Z,39.10
2018-04-19T09:36:50.389Z,39.40
2018-04-19T09:39:17.976Z,39.50
2018-04-19T09:41:46.327Z,39.60
2018-04-19T09:44:14.857Z,39.60
2018-04-19T09:46:42.489Z,39.70
2018-04-19T09:49:10.840Z,39.70
2018-04-19T09:51:38.471Z,39.60
2018-04-19T09:54:06.130Z,39.10
2018-04-19T09:56:39.811Z,38.60
2018-04-19T09:59:12.319Z,38.70
2018-04-19T10:01:45.471Z,38.60
2018-04-19T10:04:13.907Z,38.40
2018-04-19T10:06:41.477Z,38.40
2018-04-19T10:09:09.120Z,37.50
2018-04-19T10:11:36.744Z,35.70
2018-04-19T10:14:04.359Z,35.60
2018-04-19T10:16:32.757Z,34.80
2018-04-19T10:19:00.372Z,34.80
2018-04-19T10:21:28.021Z,34.30
2018-04-19T10:23:55.614Z,34.60
2018-04-19T10:26:24.018Z,35.40
2018-04-19T10:28:51.645Z,35.40
2018-04-19T10:31:20.043Z,35.70
2018-04-19T10:33:47.660Z,35.70
2018-04-19T10:36:15.286Z,36.10
2018-04-19T10:38:42.907Z,36.20
2018-04-19T10:41:11.254Z,36.60
2018-04-19T10:43:38.871Z,36.60
2018-04-19T10:46:06.513Z,37.40
2018-04-19T10:48:34.100Z,37.20
2018-04-19T10:51:01.726Z,37.60
2018-04-19T10:53:29.308Z,38.00
2018-04-19T10:55:56.940Z,37.90
2018-04-19T10:58:24.529Z,37.60
2018-04-19T11:00:52.163Z,37.80
2018-04-19T11:03:19.797Z,37.60
2018-04-19T11:05:48.200Z,36.90
2018-04-19T11:08:15.825Z,36.90
2018-04-19T11:10:43.452Z,36.90
2018-04-19T11:13:11.074Z,36.70
2018-04-19T11:15:38.653Z,37.30
2018-04-19T11:18:06.268Z,37.00
2018-04-19T11:20:34.624Z,37.20
2018-04-19T11:23:02.245Z,37.20
2018-04-19T11:25:29.819Z,37.30
2018-04-19T11:27:57.443Z,37.50
2018-04-19T11:30:25.064Z,37.00
2018-04-19T11:32:52.692Z,37.40
2018-04-19T11:35:20.319Z,36.90
2018-04-19T11:37:47.891Z,37.30
2018-04-19T11:40:15.523Z,37.30
2018-04-19T11:42:43.870Z,37.40
2018-04-19T11:45:11.449Z,37.30
2018-04-19T11:47:39.024Z,37.40
2018-04-19T11:50:07.408Z,37.20
2018-04-19T11:52:35.037Z,37.10
2018-04-19T11:55:02.629Z,36.70
2018-04-19T11:57:30.232Z,37.20
2018-04-19T11:59:57.817Z,37.60
2018-04-19T12:02:25.404Z,37.40
2018-04-19T12:04:52.998Z,37.80
2018-04-19T12:07:20.577Z,37.70
2018-04-19T12:09:48.196Z,37.60
2018-04-19T12:12:15.818Z,37.60
2018-04-19T12:14:43.440Z,37.60
2018-04-19T12:17:11.017Z,37.70
2018-04-19T12:19:38.680Z,38.00
2018-04-19T12:22:06.311Z,37.90
2018-04-19T12:24:33.922Z,37.90
2018-04-19T12:27:02.335Z,37.50
2018-04-19T12:29:29.957Z,37.50
2018-04-19T12:31:58.401Z,37.80
2018-04-19T12:34:26.023Z,37.70
2018-04-19T12:36:53.641Z,37.80
2018-04-19T12:39:21.220Z,37.70
2018-04-19T12:41:49.613Z,37.40
2018-04-19T12:44:17.196Z,37.40
2018-04-19T12:46:44.824Z,37.50
2018-04-19T12:49:13.186Z,37.10
2018-04-19T12:51:41.536Z,37.30
2018-04-19T12:54:09.132Z,37.20
2018-04-19T12:56:37.578Z,36.40
2018-04-19T12:59:05.213Z,36.30
2018-04-19T13:01:32.795Z,36.20
2018-04-19T13:04:00.460Z,36.20
2018-04-19T13:06:28.087Z,36.40
2018-04-19T13:08:55.700Z,35.80
2018-04-19T13:11:24.090Z,36.50
2018-04-19T13:13:52.436Z,36.60
2018-04-19T13:16:20.058Z,36.50
2018-04-19T13:18:47.685Z,36.50
2018-04-19T13:21:15.263Z,36.50
2018-04-19T13:26:19.779Z,36.60
2018-04-19T13:28:48.169Z,36.30
2018-04-19T13:31:16.568Z,36.50
2018-04-19T13:33:44.201Z,36.50
2018-04-19T13:36:11.789Z,36.20
2018-04-19T13:38:39.452Z,36.30
2018-04-19T13:41:07.097Z,36.40
2018-04-19T13:43:35.445Z,36.80
2018-04-19T13:46:03.091Z,36.80
2018-04-19T13:48:30.701Z,36.70
2018-04-19T13:50:59.087Z,36.80
2018-04-19T13:53:26.701Z,36.80
2018-04-19T13:55:54.435Z,36.70
2018-04-19T13:58:22.059Z,36.60
2018-04-19T14:00:50.447Z,36.60
2018-04-19T14:03:18.038Z,36.50
2018-04-19T14:05:45.719Z,36.60
2018-04-19T14:08:13.388Z,36.50
2018-04-19T14:10:40.957Z,36.50
2018-04-19T14:13:09.317Z,37.00
2018-04-19T14:15:36.928Z,36.90
2018-04-19T14:18:04.539Z,36.90
2018-04-19T14:20:32.974Z,37.40
2018-04-19T14:23:00.604Z,36.70
2018-04-19T14:25:28.956Z,36.70
2018-04-19T14:27:56.743Z,36.70
2018-04-19T14:30:24.341Z,36.60
2018-04-19T14:32:52.728Z,36.40
2018-04-19T14:35:21.086Z,36.60
2018-04-19T14:37:48.729Z,36.60
2018-04-19T14:40:16.313Z,36.60
2018-04-19T14:42:43.899Z,37.40
2018-04-19T14:45:11.549Z,36.40
2018-04-19T14:47:39.170Z,36.40
2018-04-19T14:50:06.818Z,36.60
2018-04-19T14:52:37.025Z,37.00
2018-04-19T14:55:05.430Z,37.00
2018-04-19T14:57:39.327Z,36.80
2018-04-19T15:00:06.963Z,36.20
2018-04-19T15:02:34.551Z,36.00
2018-04-19T15:05:04.883Z,36.40
2018-04-19T15:07:33.614Z,36.30
2018-04-19T15:10:04.737Z,36.40
2018-04-19T15:12:33.703Z,36.40
2018-04-19T15:15:02.345Z,36.80
2018-04-19T15:17:30.779Z,36.90
2018-04-19T15:19:58.441Z,36.80
2018-04-19T15:22:27.297Z,37.30
2018-04-19T15:24:54.906Z,37.30
2018-04-19T15:27:22.542Z,37.60
2018-04-19T15:29:50.818Z,37.80
2018-04-19T15:32:20.087Z,38.10
2018-04-19T15:34:47.790Z,38.40
2018-04-19T15:37:15.426Z,38.30
2018-04-19T15:39:43.783Z,38.10
2018-04-19T15:42:11.404Z,38.10
2018-04-19T15:44:39.028Z,38.10
2018-04-19T15:47:06.980Z,38.30
2018-04-19T15:49:34.596Z,38.30
2018-04-19T15:52:02.208Z,38.20
2018-04-19T15:54:29.828Z,38.40
2018-04-19T15:56:57.411Z,38.40
2018-04-19T15:59:25.054Z,38.50
2018-04-19T16:01:52.702Z,38.50
2018-04-19T16:04:21.076Z,38.70
2018-04-19T16:06:52.294Z,38.70
2018-04-19T16:09:19.907Z,38.70
2018-04-19T16:11:52.854Z,38.80
2018-04-19T16:14:15.991Z,38.90
2018-04-19T16:16:43.577Z,38.90
2018-04-19T16:19:11.228Z,39.00
2018-04-19T16:21:39.703Z,38.90
2018-04-19T16:24:07.320Z,39.10
2018-04-19T16:26:35.749Z,39.10
2018-04-19T16:29:03.336Z,39.10
2018-04-19T16:31:30.952Z,39.10
2018-04-19T16:33:58.577Z,39.20
2018-04-19T16:36:26.923Z,39.30
2018-04-19T16:38:54.545Z,39.30
2018-04-19T16:41:22.136Z,39.80
2018-04-19T16:43:49.761Z,39.90
2018-04-19T16:46:17.343Z,39.80
2018-04-19T16:48:44.973Z,39.80
2018-04-19T16:51:12.600Z,39.80
2018-04-19T16:53:40.270Z,39.90
2018-04-19T16:56:07.880Z,39.90
2018-04-19T16:58:35.496Z,39.90
2018-04-19T17:01:03.891Z,40.10
2018-04-19T17:03:31.530Z,40.00
2018-04-19T17:06:00.014Z,40.10
2018-04-19T17:08:28.356Z,40.20
2018-04-19T17:10:55.968Z,40.10
2018-04-19T17:13:23.596Z,40.20
2018-04-19T17:15:51.941Z,40.30
2018-04-19T17:18:19.568Z,40.30
2018-04-19T17:20:47.148Z,40.30
2018-04-19T17:23:14.768Z,40.40
2018-04-19T17:25:42.437Z,40.30
2018-04-19T17:28:10.064Z,40.40
2018-04-19T17:30:38.412Z,40.60
2018-04-19T17:33:06.053Z,40.60
2018-04-19T17:35:33.684Z,40.60
2018-04-19T17:38:01.273Z,40.60
2018-04-19T17:40:28.914Z,40.80
2018-04-19T17:42:56.604Z,40.70
2018-04-19T17:45:24.188Z,40.60
2018-04-19T17:47:51.805Z,40.80
2018-04-19T17:50:19.439Z,41.10
2018-04-19T17:52:47.068Z,41.30
2018-04-19T17:55:14.644Z,41.70
2018-04-19T17:57:43.036Z,41.00
2018-04-19T18:00:10.657Z,41.00
2018-04-19T18:02:38.244Z,41.10
2018-04-19T18:05:05.885Z,41.30
2018-04-19T18:07:34.283Z,41.60
2018-04-19T18:10:01.869Z,41.70
2018-04-19T18:12:29.503Z,41.40
2018-04-19T18:14:57.132Z,41.30
2018-04-19T18:17:24.712Z,41.60
2018-04-19T18:19:53.107Z,41.30
2018-04-19T18:22:20.692Z,41.30
2018-04-19T18:24:48.328Z,41.50
2018-04-19T18:27:15.908Z,41.40
2018-04-19T18:29:43.545Z,42.00
2018-04-19T18:32:11.127Z,41.90
2018-04-19T18:34:38.775Z,42.00
2018-04-19T18:37:06.364Z,42.00
2018-04-19T18:39:33.996Z,41.90
2018-04-19T18:42:01.573Z,42.00
2018-04-19T18:44:29.212Z,42.00
2018-04-19T18:46:56.976Z,42.20
2018-04-19T18:49:24.566Z,42.10
2018-04-19T18:51:52.149Z,42.10
2018-04-19T18:54:20.499Z,41.60
2018-04-19T18:56:48.125Z,41.50
2018-04-19T18:59:15.707Z,42.00
2018-04-19T19:01:43.307Z,42.10
2018-04-19T19:04:11.750Z,41.60
2018-04-19T19:06:39.377Z,41.60
2018-04-19T19:09:07.988Z,42.30
2018-04-19T19:11:36.379Z,42.00
2018-04-19T19:14:04.843Z,41.80
2018-04-19T19:16:32.433Z,41.80
2018-04-19T19:19:12.647Z,41.70
2018-04-19T19:21:40.293Z,41.70
2018-04-19T19:24:08.696Z,42.30
2018-04-19T19:26:37.163Z,42.30
2018-04-19T19:29:06.098Z,42.30
2018-04-19T19:31:33.839Z,42.20
2018-04-19T19:34:01.432Z,42.20
2018-04-19T19:36:29.793Z,42.10
2018-04-19T19:38:57.617Z,42.10
2018-04-19T19:41:28.417Z,42.50
2018-04-19T19:43:56.090Z,42.50
2018-04-19T19:46:23.684Z,42.40
2018-04-19T19:48:52.298Z,42.30
2018-04-19T19:51:19.908Z,42.50
2018-04-19T19:53:47.604Z,42.60
2018-04-19T19:56:15.459Z,42.90
2018-04-19T19:58:43.055Z,42.80
2018-04-19T20:01:10.641Z,42.90
2018-04-19T20:03:38.223Z,43.00
2018-04-19T20:06:05.912Z,43.00
2018-04-19T20:08:34.380Z,43.10
2018-04-19T20:11:02.748Z,43.10
2018-04-19T20:13:30.327Z,43.10
2018-04-19T20:15:57.961Z,43.10
2018-04-19T20:18:25.608Z,43.10
2018-04-19T20:20:53.235Z,43.20
2018-04-19T20:23:20.820Z,43.20
2018-04-19T20:25:48.473Z,43.20
2018-04-19T20:28:16.910Z,43.20
2018-04-19T20:30:45.375Z,43.30
2018-04-19T20:33:12.959Z,43.30
2018-04-19T20:35:41.432Z,43.80
2018-04-19T20:38:09.032Z,43.80
2018-04-19T20:40:36.616Z,43.60
2018-04-19T20:43:04.196Z,43.30
2018-04-19T20:45:31.957Z,43.80
2018-04-19T20:47:59.696Z,43.60
2018-04-19T20:50:28.072Z,43.30
2018-04-19T20:52:55.660Z,43.30
2018-04-19T20:55:24.028Z,43.20
2018-04-19T20:57:51.741Z,43.20
2018-04-19T21:00:19.338Z,42.50
2018-04-19T21:02:46.962Z,42.60
2018-04-19T21:05:15.316Z,43.00
2018-04-19T21:07:43.076Z,43.00
2018-04-19T21:10:10.678Z,42.20
2018-04-19T21:12:38.360Z,42.00
2018-04-19T21:15:06.711Z,41.50
2018-04-19T21:17:34.297Z,41.50
2018-04-19T21:20:02.014Z,41.50
2018-04-19T21:22:29.680Z,41.40
2018-04-19T21:24:57.276Z,41.40
2018-04-19T21:27:24.859Z,41.20
2018-04-19T21:29:52.468Z,41.20
2018-04-19T21:32:20.824Z,41.20
2018-04-19T21:34:48.419Z,41.20
2018-04-19T21:37:16.005Z,41.10
2018-04-19T21:39:43.589Z,41.20
2018-04-19T21:42:11.172Z,42.30
2018-04-19T21:44:39.527Z,42.70
2018-04-19T21:47:07.121Z,42.60
2018-04-19T21:49:34.709Z,42.60
2018-04-19T21:52:02.297Z,42.90
2018-04-19T21:54:29.890Z,42.10
2018-04-19T21:56:58.255Z,42.00
2018-04-19T21:59:26.611Z,42.50
2018-04-19T22:01:54.209Z,42.50
2018-04-19T22:04:21.800Z,42.50
2018-04-19T22:06:49.388Z,42.40
2018-04-19T22:09:16.972Z,42.50
2018-04-19T22:11:45.319Z,42.60
2018-04-19T22:14:12.908Z,42.60
2018-04-19T22:16:41.264Z,42.50
2018-04-19T22:19:08.858Z,42.50
2018-04-19T22:21:36.443Z,42.60
2018-04-19T22:24:04.029Z,42.50
2018-04-19T22:26:31.620Z,42.10
2018-04-19T22:28:59.971Z,41.20
2018-04-19T22:31:27.558Z,41.20
2018-04-19T22:33:55.914Z,41.00
2018-04-19T22:36:24.269Z,41.00
2018-04-19T22:38:51.868Z,41.00
2018-04-19T22:41:20.220Z,41.30
2018-04-19T22:43:47.811Z,41.30
2018-04-19T22:46:15.392Z,42.00
2018-04-19T22:48:42.977Z,41.60
2018-04-19T22:51:10.599Z,41.20
2018-04-19T22:53:38.214Z,41.20
2018-04-19T22:56:05.806Z,42.20
2018-04-19T22:58:33.385Z,41.30
2018-04-19T23:01:00.975Z,41.20
2018-04-19T23:03:28.645Z,41.10
2018-04-19T23:05:56.232Z,41.10
2018-04-19T23:08:24.579Z,40.60
2018-04-19T23:10:52.167Z,40.60
2018-04-19T23:13:20.515Z,41.20
2018-04-19T23:15:48.106Z,41.20
2018-04-19T23:18:16.456Z,41.00
2018-04-19T23:20:44.043Z,41.00
2018-04-19T23:23:11.633Z,41.20
2018-04-19T23:25:39.215Z,41.00
2018-04-19T23:28:06.804Z,41.40
2018-04-19T23:30:35.215Z,41.00
2018-04-19T23:33:02.827Z,40.90
2018-04-19T23:35:30.465Z,41.00
2018-04-19T23:37:58.049Z,40.70
2018-04-19T23:40:26.405Z,40.50
2018-04-19T23:42:53.997Z,40.50
2018-04-19T23:45:22.375Z,40.90
2018-04-19T23:47:50.724Z,41.00
2018-04-19T23:50:18.308Z,41.00
2018-04-19T23:52:46.662Z,40.70
2018-04-19T23:55:14.249Z,40.70
2018-04-19T23:57:42.601Z,40.50
